sensor_id;sensor_type;location;lat;lon;timestamp;P1;durP1;ratioP1;P2;durP2;ratioP2
17727;SDS011;8984;49.268;12.302;2022-12-11T00:00:02;15.17;;;10.87;;
17727;SDS011;8984;49.268;12.302;2022-12-11T00:02:32;15.20;;;11.30;;
17727;SDS011;8984;49.268;12.302;2022-12-11T00:04:59;15.63;;;10.97;;
17727;SDS011;8984;49.268;12.302;2022-12-11T00:07:25;18.33;;;11.07;;
17727;SDS011;8984;49.268;12.302;2022-12-11T00:09:52;16.63;;;11.67;;
17727;SDS011;8984;49.268;12.302;2022-12-11T00:12:19;18.53;;;12.40;;
17727;SDS011;8984;49.268;12.302;2022-12-11T00:14:46;15.73;;;11.80;;
17727;SDS011;8984;49.268;12.302;2022-12-11T00:17:13;16.80;;;11.37;;
17727;SDS011;8984;49.268;12.302;2022-12-11T00:19:41;19.17;;;13.37;;
17727;SDS011;8984;49.268;12.302;2022-12-11T00:22:08;16.63;;;12.10;;
17727;SDS011;8984;49.268;12.302;2022-12-11T00:24:35;17.07;;;12.07;;
17727;SDS011;8984;49.268;12.302;2022-12-11T00:27:02;16.40;;;11.63;;
17727;SDS011;8984;49.268;12.302;2022-12-11T00:29:29;15.80;;;11.13;;
17727;SDS011;8984;49.268;12.302;2022-12-11T00:31:56;17.03;;;11.93;;
17727;SDS011;8984;49.268;12.302;2022-12-11T00:34:22;16.53;;;11.87;;
17727;SDS011;8984;49.268;12.302;2022-12-11T00:36:51;16.53;;;11.87;;
17727;SDS011;8984;49.268;12.302;2022-12-11T00:39:17;16.47;;;12.37;;
17727;SDS011;8984;49.268;12.302;2022-12-11T00:41:44;16.00;;;11.10;;
17727;SDS011;8984;49.268;12.302;2022-12-11T00:44:11;18.47;;;12.47;;
17727;SDS011;8984;49.268;12.302;2022-12-11T00:46:38;18.43;;;12.13;;
17727;SDS011;8984;49.268;12.302;2022-12-11T00:49:05;16.17;;;12.47;;
17727;SDS011;8984;49.268;12.302;2022-12-11T00:51:33;17.40;;;12.60;;
17727;SDS011;8984;49.268;12.302;2022-12-11T00:54:01;16.97;;;12.43;;
17727;SDS011;8984;49.268;12.302;2022-12-11T00:56:28;18.47;;;12.40;;
17727;SDS011;8984;49.268;12.302;2022-12-11T00:58:55;19.83;;;13.17;;
17727;SDS011;8984;49.268;12.302;2022-12-11T01:01:22;18.80;;;12.60;;
17727;SDS011;8984;49.268;12.302;2022-12-11T01:03:50;17.53;;;12.10;;
17727;SDS011;8984;49.268;12.302;2022-12-11T01:06:18;17.00;;;12.30;;
17727;SDS011;8984;49.268;12.302;2022-12-11T01:08:46;19.33;;;12.47;;
17727;SDS011;8984;49.268;12.302;2022-12-11T01:11:34;19.90;;;13.70;;
17727;SDS011;8984;49.268;12.302;2022-12-11T01:14:00;19.33;;;13.83;;
17727;SDS011;8984;49.268;12.302;2022-12-11T01:16:27;17.83;;;12.73;;
17727;SDS011;8984;49.268;12.302;2022-12-11T01:18:54;19.20;;;13.00;;
17727;SDS011;8984;49.268;12.302;2022-12-11T01:21:22;19.23;;;12.77;;
17727;SDS011;8984;49.268;12.302;2022-12-11T01:23:49;18.60;;;12.90;;
17727;SDS011;8984;49.268;12.302;2022-12-11T01:26:16;20.90;;;13.87;;
17727;SDS011;8984;49.268;12.302;2022-12-11T01:28:47;17.80;;;12.70;;
17727;SDS011;8984;49.268;12.302;2022-12-11T01:31:15;18.50;;;12.67;;
17727;SDS011;8984;49.268;12.302;2022-12-11T01:33:43;17.53;;;12.73;;
17727;SDS011;8984;49.268;12.302;2022-12-11T01:36:11;17.40;;;12.53;;
17727;SDS011;8984;49.268;12.302;2022-12-11T01:38:39;20.40;;;13.53;;
17727;SDS011;8984;49.268;12.302;2022-12-11T01:41:06;21.53;;;13.83;;
17727;SDS011;8984;49.268;12.302;2022-12-11T01:43:34;18.83;;;13.30;;
17727;SDS011;8984;49.268;12.302;2022-12-11T01:46:18;17.33;;;12.37;;
17727;SDS011;8984;49.268;12.302;2022-12-11T01:48:44;18.43;;;13.27;;
17727;SDS011;8984;49.268;12.302;2022-12-11T01:51:11;18.50;;;12.70;;
17727;SDS011;8984;49.268;12.302;2022-12-11T01:53:39;20.63;;;13.37;;
17727;SDS011;8984;49.268;12.302;2022-12-11T01:56:08;18.07;;;13.37;;
17727;SDS011;8984;49.268;12.302;2022-12-11T01:58:37;19.83;;;12.87;;
17727;SDS011;8984;49.268;12.302;2022-12-11T02:01:07;17.73;;;12.80;;
17727;SDS011;8984;49.268;12.302;2022-12-11T02:03:41;23.57;;;13.43;;
17727;SDS011;8984;49.268;12.302;2022-12-11T02:08:57;20.87;;;13.60;;
17727;SDS011;8984;49.268;12.302;2022-12-11T02:11:26;21.03;;;14.13;;
17727;SDS011;8984;49.268;12.302;2022-12-11T02:14:02;20.33;;;13.87;;
17727;SDS011;8984;49.268;12.302;2022-12-11T02:16:34;18.53;;;12.80;;
17727;SDS011;8984;49.268;12.302;2022-12-11T02:19:11;20.77;;;13.73;;
17727;SDS011;8984;49.268;12.302;2022-12-11T02:21:45;21.27;;;14.13;;
17727;SDS011;8984;49.268;12.302;2022-12-11T02:24:20;20.70;;;13.40;;
17727;SDS011;8984;49.268;12.302;2022-12-11T02:27:04;19.67;;;13.83;;
17727;SDS011;8984;49.268;12.302;2022-12-11T02:29:42;22.83;;;15.17;;
17727;SDS011;8984;49.268;12.302;2022-12-11T02:32:15;22.87;;;15.63;;
17727;SDS011;8984;49.268;12.302;2022-12-11T02:34:48;23.83;;;16.07;;
17727;SDS011;8984;49.268;12.302;2022-12-11T02:37:24;22.20;;;15.40;;
17727;SDS011;8984;49.268;12.302;2022-12-11T02:39:54;24.23;;;16.63;;
17727;SDS011;8984;49.268;12.302;2022-12-11T02:42:23;24.60;;;16.90;;
17727;SDS011;8984;49.268;12.302;2022-12-11T02:44:55;25.80;;;16.40;;
17727;SDS011;8984;49.268;12.302;2022-12-11T02:47:24;26.70;;;16.90;;
17727;SDS011;8984;49.268;12.302;2022-12-11T02:49:55;24.87;;;17.10;;
17727;SDS011;8984;49.268;12.302;2022-12-11T02:52:25;25.50;;;17.37;;
17727;SDS011;8984;49.268;12.302;2022-12-11T02:54:55;25.23;;;17.27;;
17727;SDS011;8984;49.268;12.302;2022-12-11T02:57:26;23.03;;;16.00;;
17727;SDS011;8984;49.268;12.302;2022-12-11T02:59:58;26.53;;;17.77;;
17727;SDS011;8984;49.268;12.302;2022-12-11T03:02:25;28.70;;;18.10;;
17727;SDS011;8984;49.268;12.302;2022-12-11T03:04:52;23.57;;;16.43;;
17727;SDS011;8984;49.268;12.302;2022-12-11T03:07:22;26.13;;;17.37;;
17727;SDS011;8984;49.268;12.302;2022-12-11T03:09:52;24.90;;;16.77;;
17727;SDS011;8984;49.268;12.302;2022-12-11T03:12:20;24.60;;;16.77;;
17727;SDS011;8984;49.268;12.302;2022-12-11T03:14:50;26.17;;;17.00;;
17727;SDS011;8984;49.268;12.302;2022-12-11T03:17:18;25.83;;;17.27;;
17727;SDS011;8984;49.268;12.302;2022-12-11T03:19:49;26.03;;;17.27;;
17727;SDS011;8984;49.268;12.302;2022-12-11T03:22:20;24.43;;;16.93;;
17727;SDS011;8984;49.268;12.302;2022-12-11T03:24:52;24.93;;;16.67;;
17727;SDS011;8984;49.268;12.302;2022-12-11T03:27:26;25.20;;;17.23;;
17727;SDS011;8984;49.268;12.302;2022-12-11T03:29:56;24.73;;;16.77;;
17727;SDS011;8984;49.268;12.302;2022-12-11T03:32:28;24.27;;;16.83;;
17727;SDS011;8984;49.268;12.302;2022-12-11T03:35:02;24.73;;;17.63;;
17727;SDS011;8984;49.268;12.302;2022-12-11T03:37:33;26.30;;;18.30;;
17727;SDS011;8984;49.268;12.302;2022-12-11T03:40:03;25.83;;;17.97;;
17727;SDS011;8984;49.268;12.302;2022-12-11T03:42:34;27.13;;;17.40;;
17727;SDS011;8984;49.268;12.302;2022-12-11T03:45:03;23.43;;;16.67;;
17727;SDS011;8984;49.268;12.302;2022-12-11T03:47:33;25.07;;;16.93;;
17727;SDS011;8984;49.268;12.302;2022-12-11T03:50:03;27.50;;;17.80;;
17727;SDS011;8984;49.268;12.302;2022-12-11T03:52:31;27.33;;;16.77;;
17727;SDS011;8984;49.268;12.302;2022-12-11T03:55:00;25.27;;;17.03;;
17727;SDS011;8984;49.268;12.302;2022-12-11T03:57:30;25.33;;;17.83;;
17727;SDS011;8984;49.268;12.302;2022-12-11T04:00:00;26.63;;;17.80;;
17727;SDS011;8984;49.268;12.302;2022-12-11T04:02:29;26.63;;;18.43;;
17727;SDS011;8984;49.268;12.302;2022-12-11T04:04:57;26.20;;;17.93;;
17727;SDS011;8984;49.268;12.302;2022-12-11T04:07:24;29.30;;;18.50;;
17727;SDS011;8984;49.268;12.302;2022-12-11T04:09:51;28.57;;;18.03;;
17727;SDS011;8984;49.268;12.302;2022-12-11T04:12:18;26.60;;;17.23;;
17727;SDS011;8984;49.268;12.302;2022-12-11T04:14:44;23.77;;;16.83;;
17727;SDS011;8984;49.268;12.302;2022-12-11T04:17:27;25.67;;;17.53;;
17727;SDS011;8984;49.268;12.302;2022-12-11T04:20:12;26.17;;;17.40;;
17727;SDS011;8984;49.268;12.302;2022-12-11T04:22:57;24.73;;;17.30;;
17727;SDS011;8984;49.268;12.302;2022-12-11T04:25:41;26.57;;;17.60;;
17727;SDS011;8984;49.268;12.302;2022-12-11T04:28:08;27.70;;;17.57;;
17727;SDS011;8984;49.268;12.302;2022-12-11T04:30:35;26.77;;;18.10;;
17727;SDS011;8984;49.268;12.302;2022-12-11T04:33:02;25.17;;;16.30;;
17727;SDS011;8984;49.268;12.302;2022-12-11T04:35:30;27.13;;;17.73;;
17727;SDS011;8984;49.268;12.302;2022-12-11T04:37:57;29.67;;;17.87;;
17727;SDS011;8984;49.268;12.302;2022-12-11T04:40:23;24.93;;;16.77;;
17727;SDS011;8984;49.268;12.302;2022-12-11T04:42:52;25.93;;;17.70;;
17727;SDS011;8984;49.268;12.302;2022-12-11T04:45:18;26.17;;;17.30;;
17727;SDS011;8984;49.268;12.302;2022-12-11T04:47:45;26.43;;;17.27;;
17727;SDS011;8984;49.268;12.302;2022-12-11T04:50:12;28.90;;;18.40;;
17727;SDS011;8984;49.268;12.302;2022-12-11T04:52:42;26.23;;;17.93;;
17727;SDS011;8984;49.268;12.302;2022-12-11T04:55:09;26.07;;;17.63;;
17727;SDS011;8984;49.268;12.302;2022-12-11T04:57:37;26.40;;;17.33;;
17727;SDS011;8984;49.268;12.302;2022-12-11T05:00:04;29.63;;;17.87;;
17727;SDS011;8984;49.268;12.302;2022-12-11T05:02:33;25.47;;;17.63;;
17727;SDS011;8984;49.268;12.302;2022-12-11T05:05:02;25.90;;;17.80;;
17727;SDS011;8984;49.268;12.302;2022-12-11T05:07:29;27.53;;;17.90;;
17727;SDS011;8984;49.268;12.302;2022-12-11T05:09:57;26.30;;;18.50;;
17727;SDS011;8984;49.268;12.302;2022-12-11T05:12:24;30.23;;;19.50;;
17727;SDS011;8984;49.268;12.302;2022-12-11T05:14:51;23.97;;;16.60;;
17727;SDS011;8984;49.268;12.302;2022-12-11T05:17:18;27.53;;;17.77;;
17727;SDS011;8984;49.268;12.302;2022-12-11T05:19:46;33.93;;;21.73;;
17727;SDS011;8984;49.268;12.302;2022-12-11T05:22:14;27.93;;;17.47;;
17727;SDS011;8984;49.268;12.302;2022-12-11T05:24:41;27.37;;;18.40;;
17727;SDS011;8984;49.268;12.302;2022-12-11T05:27:10;24.60;;;16.80;;
17727;SDS011;8984;49.268;12.302;2022-12-11T05:29:37;27.20;;;17.20;;
17727;SDS011;8984;49.268;12.302;2022-12-11T05:32:04;25.77;;;17.43;;
17727;SDS011;8984;49.268;12.302;2022-12-11T05:34:31;26.53;;;16.73;;
17727;SDS011;8984;49.268;12.302;2022-12-11T05:36:58;25.77;;;17.13;;
17727;SDS011;8984;49.268;12.302;2022-12-11T05:39:25;27.77;;;18.47;;
17727;SDS011;8984;49.268;12.302;2022-12-11T05:41:52;33.97;;;19.23;;
17727;SDS011;8984;49.268;12.302;2022-12-11T05:44:20;27.50;;;17.77;;
17727;SDS011;8984;49.268;12.302;2022-12-11T05:46:47;26.43;;;16.90;;
17727;SDS011;8984;49.268;12.302;2022-12-11T05:49:13;26.60;;;17.23;;
17727;SDS011;8984;49.268;12.302;2022-12-11T05:51:41;29.67;;;19.17;;
17727;SDS011;8984;49.268;12.302;2022-12-11T05:54:08;27.03;;;17.50;;
17727;SDS011;8984;49.268;12.302;2022-12-11T05:56:35;26.70;;;17.80;;
17727;SDS011;8984;49.268;12.302;2022-12-11T05:59:03;26.17;;;16.67;;
17727;SDS011;8984;49.268;12.302;2022-12-11T06:01:33;25.07;;;17.27;;
17727;SDS011;8984;49.268;12.302;2022-12-11T06:04:02;25.80;;;17.33;;
17727;SDS011;8984;49.268;12.302;2022-12-11T06:06:29;26.10;;;17.00;;
17727;SDS011;8984;49.268;12.302;2022-12-11T06:08:57;23.67;;;16.30;;
17727;SDS011;8984;49.268;12.302;2022-12-11T06:11:25;27.43;;;17.80;;
17727;SDS011;8984;49.268;12.302;2022-12-11T06:13:55;25.07;;;17.20;;
17727;SDS011;8984;49.268;12.302;2022-12-11T06:16:23;26.43;;;17.37;;
17727;SDS011;8984;49.268;12.302;2022-12-11T06:18:51;24.87;;;17.00;;
17727;SDS011;8984;49.268;12.302;2022-12-11T06:21:19;25.53;;;16.53;;
17727;SDS011;8984;49.268;12.302;2022-12-11T06:23:48;26.97;;;18.30;;
17727;SDS011;8984;49.268;12.302;2022-12-11T06:26:16;25.77;;;17.83;;
17727;SDS011;8984;49.268;12.302;2022-12-11T06:28:44;27.77;;;18.87;;
17727;SDS011;8984;49.268;12.302;2022-12-11T06:31:11;27.37;;;19.03;;
17727;SDS011;8984;49.268;12.302;2022-12-11T06:33:38;29.43;;;19.47;;
17727;SDS011;8984;49.268;12.302;2022-12-11T06:36:07;29.30;;;19.17;;
17727;SDS011;8984;49.268;12.302;2022-12-11T06:38:35;29.50;;;19.27;;
17727;SDS011;8984;49.268;12.302;2022-12-11T06:41:05;30.13;;;19.10;;
17727;SDS011;8984;49.268;12.302;2022-12-11T06:43:33;28.00;;;19.00;;
17727;SDS011;8984;49.268;12.302;2022-12-11T06:46:02;29.47;;;18.60;;
17727;SDS011;8984;49.268;12.302;2022-12-11T06:48:30;26.60;;;18.10;;
17727;SDS011;8984;49.268;12.302;2022-12-11T06:50:57;26.27;;;18.00;;
17727;SDS011;8984;49.268;12.302;2022-12-11T06:53:25;27.23;;;18.67;;
17727;SDS011;8984;49.268;12.302;2022-12-11T06:55:52;30.03;;;20.97;;
17727;SDS011;8984;49.268;12.302;2022-12-11T06:58:19;30.23;;;20.73;;
17727;SDS011;8984;49.268;12.302;2022-12-11T07:00:46;28.83;;;19.17;;
17727;SDS011;8984;49.268;12.302;2022-12-11T07:03:12;28.00;;;18.10;;
17727;SDS011;8984;49.268;12.302;2022-12-11T07:05:39;27.73;;;18.83;;
17727;SDS011;8984;49.268;12.302;2022-12-11T07:08:06;30.70;;;19.07;;
17727;SDS011;8984;49.268;12.302;2022-12-11T07:10:34;29.63;;;19.53;;
17727;SDS011;8984;49.268;12.302;2022-12-11T07:13:01;33.47;;;22.13;;
17727;SDS011;8984;49.268;12.302;2022-12-11T07:15:28;32.23;;;20.07;;
17727;SDS011;8984;49.268;12.302;2022-12-11T07:17:55;30.87;;;19.93;;
17727;SDS011;8984;49.268;12.302;2022-12-11T07:20:21;32.50;;;20.53;;
17727;SDS011;8984;49.268;12.302;2022-12-11T07:22:49;34.47;;;21.77;;
17727;SDS011;8984;49.268;12.302;2022-12-11T07:25:16;31.53;;;20.10;;
17727;SDS011;8984;49.268;12.302;2022-12-11T07:27:44;30.80;;;19.27;;
17727;SDS011;8984;49.268;12.302;2022-12-11T07:30:11;29.73;;;19.17;;
17727;SDS011;8984;49.268;12.302;2022-12-11T07:32:39;25.43;;;17.60;;
17727;SDS011;8984;49.268;12.302;2022-12-11T07:35:06;29.87;;;19.03;;
17727;SDS011;8984;49.268;12.302;2022-12-11T07:37:34;26.17;;;18.17;;
17727;SDS011;8984;49.268;12.302;2022-12-11T07:40:02;30.23;;;19.43;;
17727;SDS011;8984;49.268;12.302;2022-12-11T07:42:29;26.53;;;18.63;;
17727;SDS011;8984;49.268;12.302;2022-12-11T07:44:57;27.33;;;18.23;;
17727;SDS011;8984;49.268;12.302;2022-12-11T07:47:24;28.93;;;19.37;;
17727;SDS011;8984;49.268;12.302;2022-12-11T07:49:51;29.23;;;18.60;;
17727;SDS011;8984;49.268;12.302;2022-12-11T07:52:18;28.83;;;19.90;;
17727;SDS011;8984;49.268;12.302;2022-12-11T07:54:45;30.17;;;19.80;;
17727;SDS011;8984;49.268;12.302;2022-12-11T07:57:12;27.93;;;19.13;;
17727;SDS011;8984;49.268;12.302;2022-12-11T07:59:38;29.53;;;19.13;;
17727;SDS011;8984;49.268;12.302;2022-12-11T08:02:07;27.50;;;18.47;;
17727;SDS011;8984;49.268;12.302;2022-12-11T08:04:34;26.70;;;17.83;;
17727;SDS011;8984;49.268;12.302;2022-12-11T08:07:01;28.50;;;19.77;;
17727;SDS011;8984;49.268;12.302;2022-12-11T08:09:28;30.97;;;19.90;;
17727;SDS011;8984;49.268;12.302;2022-12-11T08:11:55;28.93;;;18.90;;
17727;SDS011;8984;49.268;12.302;2022-12-11T08:14:22;29.83;;;19.33;;
17727;SDS011;8984;49.268;12.302;2022-12-11T08:16:49;27.03;;;18.73;;
17727;SDS011;8984;49.268;12.302;2022-12-11T08:19:17;25.73;;;17.80;;
17727;SDS011;8984;49.268;12.302;2022-12-11T08:21:44;27.80;;;18.10;;
17727;SDS011;8984;49.268;12.302;2022-12-11T08:24:11;29.23;;;20.00;;
17727;SDS011;8984;49.268;12.302;2022-12-11T08:26:40;28.53;;;19.60;;
17727;SDS011;8984;49.268;12.302;2022-12-11T08:29:07;30.87;;;19.73;;
17727;SDS011;8984;49.268;12.302;2022-12-11T08:31:35;29.20;;;20.10;;
17727;SDS011;8984;49.268;12.302;2022-12-11T08:34:01;32.50;;;21.07;;
17727;SDS011;8984;49.268;12.302;2022-12-11T08:36:29;30.57;;;20.07;;
17727;SDS011;8984;49.268;12.302;2022-12-11T08:38:56;29.23;;;19.17;;
17727;SDS011;8984;49.268;12.302;2022-12-11T08:41:24;32.03;;;20.57;;
17727;SDS011;8984;49.268;12.302;2022-12-11T08:43:52;28.87;;;19.73;;
17727;SDS011;8984;49.268;12.302;2022-12-11T08:46:20;29.30;;;18.53;;
17727;SDS011;8984;49.268;12.302;2022-12-11T08:48:48;30.70;;;20.10;;
17727;SDS011;8984;49.268;12.302;2022-12-11T08:51:16;31.57;;;21.80;;
17727;SDS011;8984;49.268;12.302;2022-12-11T08:53:47;34.10;;;23.67;;
17727;SDS011;8984;49.268;12.302;2022-12-11T08:56:15;31.20;;;21.53;;
17727;SDS011;8984;49.268;12.302;2022-12-11T08:58:44;31.03;;;22.40;;
17727;SDS011;8984;49.268;12.302;2022-12-11T09:01:12;29.73;;;20.70;;
17727;SDS011;8984;49.268;12.302;2022-12-11T09:03:41;27.13;;;18.43;;
17727;SDS011;8984;49.268;12.302;2022-12-11T09:06:10;26.60;;;18.87;;
17727;SDS011;8984;49.268;12.302;2022-12-11T09:08:38;24.43;;;17.40;;
17727;SDS011;8984;49.268;12.302;2022-12-11T09:11:07;23.73;;;16.73;;
17727;SDS011;8984;49.268;12.302;2022-12-11T09:13:36;25.33;;;16.83;;
17727;SDS011;8984;49.268;12.302;2022-12-11T09:16:03;25.00;;;17.33;;
17727;SDS011;8984;49.268;12.302;2022-12-11T09:18:31;22.37;;;15.47;;
17727;SDS011;8984;49.268;12.302;2022-12-11T09:20:58;25.70;;;18.03;;
17727;SDS011;8984;49.268;12.302;2022-12-11T09:23:26;27.07;;;18.67;;
17727;SDS011;8984;49.268;12.302;2022-12-11T09:25:53;23.60;;;17.07;;
17727;SDS011;8984;49.268;12.302;2022-12-11T09:28:21;21.30;;;15.33;;
17727;SDS011;8984;49.268;12.302;2022-12-11T09:30:49;21.87;;;15.47;;
17727;SDS011;8984;49.268;12.302;2022-12-11T09:33:16;21.83;;;14.97;;
17727;SDS011;8984;49.268;12.302;2022-12-11T09:35:43;23.40;;;16.33;;
17727;SDS011;8984;49.268;12.302;2022-12-11T09:38:10;24.10;;;16.83;;
17727;SDS011;8984;49.268;12.302;2022-12-11T09:40:40;23.30;;;16.57;;
17727;SDS011;8984;49.268;12.302;2022-12-11T09:43:11;24.37;;;16.90;;
17727;SDS011;8984;49.268;12.302;2022-12-11T09:45:46;22.30;;;15.53;;
17727;SDS011;8984;49.268;12.302;2022-12-11T09:48:16;22.73;;;16.13;;
17727;SDS011;8984;49.268;12.302;2022-12-11T09:50:46;20.33;;;14.50;;
17727;SDS011;8984;49.268;12.302;2022-12-11T09:53:16;19.73;;;14.23;;
17727;SDS011;8984;49.268;12.302;2022-12-11T09:55:48;24.60;;;15.97;;
17727;SDS011;8984;49.268;12.302;2022-12-11T09:58:26;20.60;;;14.43;;
17727;SDS011;8984;49.268;12.302;2022-12-11T10:01:06;24.63;;;15.53;;
17727;SDS011;8984;49.268;12.302;2022-12-11T10:03:49;19.63;;;14.37;;
17727;SDS011;8984;49.268;12.302;2022-12-11T10:06:29;20.30;;;13.93;;
17727;SDS011;8984;49.268;12.302;2022-12-11T10:09:03;17.73;;;12.07;;
17727;SDS011;8984;49.268;12.302;2022-12-11T10:14:37;14.67;;;10.83;;
17727;SDS011;8984;49.268;12.302;2022-12-11T10:17:17;12.90;;;9.70;;
17727;SDS011;8984;49.268;12.302;2022-12-11T10:19:47;12.00;;;9.37;;
17727;SDS011;8984;49.268;12.302;2022-12-11T10:22:16;11.30;;;8.73;;
17727;SDS011;8984;49.268;12.302;2022-12-11T10:24:48;11.43;;;9.00;;
17727;SDS011;8984;49.268;12.302;2022-12-11T10:27:21;12.30;;;9.43;;
17727;SDS011;8984;49.268;12.302;2022-12-11T10:29:53;15.17;;;11.23;;
17727;SDS011;8984;49.268;12.302;2022-12-11T10:32:28;12.30;;;9.17;;
17727;SDS011;8984;49.268;12.302;2022-12-11T10:35:03;11.53;;;8.93;;
17727;SDS011;8984;49.268;12.302;2022-12-11T10:37:31;12.17;;;9.57;;
17727;SDS011;8984;49.268;12.302;2022-12-11T10:39:58;12.07;;;9.00;;
17727;SDS011;8984;49.268;12.302;2022-12-11T10:42:25;15.33;;;9.80;;
17727;SDS011;8984;49.268;12.302;2022-12-11T10:44:55;12.57;;;9.70;;
17727;SDS011;8984;49.268;12.302;2022-12-11T10:47:23;12.43;;;10.00;;
17727;SDS011;8984;49.268;12.302;2022-12-11T10:49:53;11.77;;;9.13;;
17727;SDS011;8984;49.268;12.302;2022-12-11T10:52:23;12.27;;;9.80;;
17727;SDS011;8984;49.268;12.302;2022-12-11T10:54:55;13.27;;;10.07;;
17727;SDS011;8984;49.268;12.302;2022-12-11T10:57:27;14.03;;;10.37;;
17727;SDS011;8984;49.268;12.302;2022-12-11T10:59:55;15.60;;;11.13;;
17727;SDS011;8984;49.268;12.302;2022-12-11T11:02:24;14.03;;;11.23;;
17727;SDS011;8984;49.268;12.302;2022-12-11T11:04:54;13.47;;;10.03;;
17727;SDS011;8984;49.268;12.302;2022-12-11T11:07:24;12.77;;;9.83;;
17727;SDS011;8984;49.268;12.302;2022-12-11T11:10:02;13.17;;;9.87;;
17727;SDS011;8984;49.268;12.302;2022-12-11T11:12:35;14.80;;;10.97;;
17727;SDS011;8984;49.268;12.302;2022-12-11T11:15:04;13.37;;;10.60;;
17727;SDS011;8984;49.268;12.302;2022-12-11T11:17:39;13.07;;;9.80;;
17727;SDS011;8984;49.268;12.302;2022-12-11T11:20:13;13.77;;;9.70;;
17727;SDS011;8984;49.268;12.302;2022-12-11T11:22:43;14.07;;;10.37;;
17727;SDS011;8984;49.268;12.302;2022-12-11T11:25:16;12.63;;;10.30;;
17727;SDS011;8984;49.268;12.302;2022-12-11T11:27:46;13.57;;;9.93;;
17727;SDS011;8984;49.268;12.302;2022-12-11T11:30:17;12.60;;;9.77;;
17727;SDS011;8984;49.268;12.302;2022-12-11T11:32:46;13.73;;;10.40;;
17727;SDS011;8984;49.268;12.302;2022-12-11T11:35:19;13.93;;;10.37;;
17727;SDS011;8984;49.268;12.302;2022-12-11T11:37:53;12.40;;;10.00;;
17727;SDS011;8984;49.268;12.302;2022-12-11T11:40:26;14.17;;;10.47;;
17727;SDS011;8984;49.268;12.302;2022-12-11T11:42:57;15.27;;;11.20;;
17727;SDS011;8984;49.268;12.302;2022-12-11T11:45:30;16.33;;;11.07;;
17727;SDS011;8984;49.268;12.302;2022-12-11T11:48:06;19.30;;;13.17;;
17727;SDS011;8984;49.268;12.302;2022-12-11T11:50:44;12.90;;;9.40;;
17727;SDS011;8984;49.268;12.302;2022-12-11T11:53:16;13.03;;;9.83;;
17727;SDS011;8984;49.268;12.302;2022-12-11T11:55:50;15.20;;;10.47;;
17727;SDS011;8984;49.268;12.302;2022-12-11T11:58:29;12.47;;;9.73;;
17727;SDS011;8984;49.268;12.302;2022-12-11T12:01:02;12.97;;;10.03;;
17727;SDS011;8984;49.268;12.302;2022-12-11T12:03:29;13.43;;;10.40;;
17727;SDS011;8984;49.268;12.302;2022-12-11T12:05:59;14.73;;;10.23;;
17727;SDS011;8984;49.268;12.302;2022-12-11T12:08:37;12.17;;;9.40;;
17727;SDS011;8984;49.268;12.302;2022-12-11T12:11:11;12.17;;;9.17;;
17727;SDS011;8984;49.268;12.302;2022-12-11T12:13:48;12.40;;;9.73;;
17727;SDS011;8984;49.268;12.302;2022-12-11T12:16:26;11.43;;;8.50;;
17727;SDS011;8984;49.268;12.302;2022-12-11T12:19:05;10.83;;;8.77;;
17727;SDS011;8984;49.268;12.302;2022-12-11T12:21:41;12.53;;;9.47;;
17727;SDS011;8984;49.268;12.302;2022-12-11T12:24:16;13.03;;;9.80;;
17727;SDS011;8984;49.268;12.302;2022-12-11T12:26:51;13.47;;;9.90;;
17727;SDS011;8984;49.268;12.302;2022-12-11T12:29:25;12.90;;;9.63;;
17727;SDS011;8984;49.268;12.302;2022-12-11T12:32:02;11.60;;;9.10;;
17727;SDS011;8984;49.268;12.302;2022-12-11T12:37:31;10.73;;;8.80;;
17727;SDS011;8984;49.268;12.302;2022-12-11T12:40:13;15.47;;;11.47;;
17727;SDS011;8984;49.268;12.302;2022-12-11T12:42:47;12.70;;;7.43;;
17727;SDS011;8984;49.268;12.302;2022-12-11T12:45:24;8.20;;;7.00;;
17727;SDS011;8984;49.268;12.302;2022-12-11T12:47:55;23.47;;;8.97;;
17727;SDS011;8984;49.268;12.302;2022-12-11T12:50:23;10.13;;;7.23;;
17727;SDS011;8984;49.268;12.302;2022-12-11T12:52:55;8.83;;;7.33;;
17727;SDS011;8984;49.268;12.302;2022-12-11T12:55:23;10.30;;;7.83;;
17727;SDS011;8984;49.268;12.302;2022-12-11T12:57:54;10.10;;;7.00;;
17727;SDS011;8984;49.268;12.302;2022-12-11T13:00:26;9.77;;;7.60;;
17727;SDS011;8984;49.268;12.302;2022-12-11T13:02:58;8.73;;;7.10;;
17727;SDS011;8984;49.268;12.302;2022-12-11T13:05:31;8.60;;;7.07;;
17727;SDS011;8984;49.268;12.302;2022-12-11T13:08:01;9.43;;;7.20;;
17727;SDS011;8984;49.268;12.302;2022-12-11T13:10:30;10.37;;;8.23;;
17727;SDS011;8984;49.268;12.302;2022-12-11T13:13:00;14.60;;;9.83;;
17727;SDS011;8984;49.268;12.302;2022-12-11T13:15:29;12.87;;;8.80;;
17727;SDS011;8984;49.268;12.302;2022-12-11T13:17:59;8.87;;;6.70;;
17727;SDS011;8984;49.268;12.302;2022-12-11T13:20:27;8.83;;;7.20;;
17727;SDS011;8984;49.268;12.302;2022-12-11T13:23:15;9.50;;;7.63;;
17727;SDS011;8984;49.268;12.302;2022-12-11T13:25:46;8.90;;;7.03;;
17727;SDS011;8984;49.268;12.302;2022-12-11T13:28:19;7.97;;;6.50;;
17727;SDS011;8984;49.268;12.302;2022-12-11T13:30:58;10.43;;;7.97;;
17727;SDS011;8984;49.268;12.302;2022-12-11T13:33:28;8.63;;;5.87;;
17727;SDS011;8984;49.268;12.302;2022-12-11T13:36:13;9.17;;;7.47;;
17727;SDS011;8984;49.268;12.302;2022-12-11T13:38:51;8.77;;;7.17;;
17727;SDS011;8984;49.268;12.302;2022-12-11T13:41:21;8.60;;;6.00;;
17727;SDS011;8984;49.268;12.302;2022-12-11T13:43:49;7.50;;;5.77;;
17727;SDS011;8984;49.268;12.302;2022-12-11T13:46:18;7.63;;;6.33;;
17727;SDS011;8984;49.268;12.302;2022-12-11T13:48:49;7.60;;;5.73;;
17727;SDS011;8984;49.268;12.302;2022-12-11T13:51:19;8.47;;;6.50;;
17727;SDS011;8984;49.268;12.302;2022-12-11T13:53:48;7.00;;;6.00;;
17727;SDS011;8984;49.268;12.302;2022-12-11T13:56:27;9.23;;;6.93;;
17727;SDS011;8984;49.268;12.302;2022-12-11T13:58:53;6.30;;;5.53;;
17727;SDS011;8984;49.268;12.302;2022-12-11T14:01:21;19.83;;;13.17;;
17727;SDS011;8984;49.268;12.302;2022-12-11T14:03:52;14.70;;;10.03;;
17727;SDS011;8984;49.268;12.302;2022-12-11T14:06:21;11.27;;;8.47;;
17727;SDS011;8984;49.268;12.302;2022-12-11T14:08:50;10.70;;;7.70;;
17727;SDS011;8984;49.268;12.302;2022-12-11T14:11:20;9.00;;;7.90;;
17727;SDS011;8984;49.268;12.302;2022-12-11T14:13:51;8.63;;;7.57;;
17727;SDS011;8984;49.268;12.302;2022-12-11T14:16:21;10.00;;;8.23;;
17727;SDS011;8984;49.268;12.302;2022-12-11T14:18:49;10.33;;;8.33;;
17727;SDS011;8984;49.268;12.302;2022-12-11T14:21:18;11.00;;;8.03;;
17727;SDS011;8984;49.268;12.302;2022-12-11T14:23:50;10.53;;;8.10;;
17727;SDS011;8984;49.268;12.302;2022-12-11T14:26:20;10.80;;;8.07;;
17727;SDS011;8984;49.268;12.302;2022-12-11T14:28:48;10.90;;;8.47;;
17727;SDS011;8984;49.268;12.302;2022-12-11T14:31:17;10.47;;;8.23;;
17727;SDS011;8984;49.268;12.302;2022-12-11T14:33:49;13.30;;;10.23;;
17727;SDS011;8984;49.268;12.302;2022-12-11T14:36:19;11.47;;;9.33;;
17727;SDS011;8984;49.268;12.302;2022-12-11T14:38:48;11.33;;;9.20;;
17727;SDS011;8984;49.268;12.302;2022-12-11T14:41:22;15.70;;;11.30;;
17727;SDS011;8984;49.268;12.302;2022-12-11T14:43:55;26.63;;;17.60;;
17727;SDS011;8984;49.268;12.302;2022-12-11T14:46:26;15.83;;;12.00;;
17727;SDS011;8984;49.268;12.302;2022-12-11T14:49:00;16.17;;;11.17;;